地図

経路データ

SID SEASON NUMBER BASIN SUBBASIN NAME ISO_TIME NATURE LAT LON WMO_WIND WMO_PRES WMO_AGENCY TRACK_TYPE DIST2LAND LANDFALL IFLAG USA_AGENCY USA_ATCF_ID USA_LAT USA_LON USA_RECORD USA_STATUS USA_WIND USA_PRES USA_SSHS USA_R34_NE USA_R34_SE USA_R34_SW USA_R34_NW USA_R50_NE USA_R50_SE USA_R50_SW USA_R50_NW USA_R64_NE USA_R64_SE USA_R64_SW USA_R64_NW USA_POCI USA_ROCI USA_RMW USA_EYE TOKYO_LAT TOKYO_LON TOKYO_GRADE TOKYO_WIND TOKYO_PRES TOKYO_R50_DIR TOKYO_R50_LONG TOKYO_R50_SHORT TOKYO_R30_DIR TOKYO_R30_LONG TOKYO_R30_SHORT TOKYO_LAND CMA_LAT CMA_LON CMA_CAT CMA_WIND CMA_PRES HKO_LAT HKO_LON HKO_CAT HKO_WIND HKO_PRES NEWDELHI_LAT NEWDELHI_LON NEWDELHI_GRADE NEWDELHI_WIND NEWDELHI_PRES NEWDELHI_CI NEWDELHI_DP NEWDELHI_POCI REUNION_LAT REUNION_LON REUNION_TYPE REUNION_WIND REUNION_PRES REUNION_TNUM REUNION_CI REUNION_RMW REUNION_R34_NE REUNION_R34_SE REUNION_R34_SW REUNION_R34_NW REUNION_R50_NE REUNION_R50_SE REUNION_R50_SW REUNION_R50_NW REUNION_R64_NE REUNION_R64_SE REUNION_R64_SW REUNION_R64_NW BOM_LAT BOM_LON BOM_TYPE BOM_WIND BOM_PRES BOM_TNUM BOM_CI BOM_RMW BOM_R34_NE BOM_R34_SE BOM_R34_SW BOM_R34_NW BOM_R50_NE BOM_R50_SE BOM_R50_SW BOM_R50_NW BOM_R64_NE BOM_R64_SE BOM_R64_SW BOM_R64_NW BOM_ROCI BOM_POCI BOM_EYE BOM_POS_METHOD BOM_PRES_METHOD NADI_LAT NADI_LON NADI_CAT NADI_WIND NADI_PRES WELLINGTON_LAT WELLINGTON_LON WELLINGTON_WIND WELLINGTON_PRES DS824_LAT DS824_LON DS824_STAGE DS824_WIND DS824_PRES TD9636_LAT TD9636_LON TD9636_STAGE TD9636_WIND TD9636_PRES TD9635_LAT TD9635_LON TD9635_WIND TD9635_PRES TD9635_ROCI NEUMANN_LAT NEUMANN_LON NEUMANN_CLASS NEUMANN_WIND NEUMANN_PRES MLC_LAT MLC_LON MLC_CLASS MLC_WIND MLC_PRES USA_GUST BOM_GUST BOM_GUST_PER REUNION_GUST REUNION_GUST_PER USA_SEAHGT USA_SEARAD_NE USA_SEARAD_SE USA_SEARAD_SW USA_SEARAD_NW STORM_SPEED STORM_DIR
1878287N19283 1878 32 NA CS NOT_NAMED 1878-10-13 12:00:00 TS 18.5000 -77.0000 main 11 11 _____________O -1 18.5000 -77.0000 TD 30 1 328
1878287N19283 1878 32 NA CS NOT_NAMED 1878-10-13 15:00:00 TS 18.5475 -77.0375 main 11 11 _____________P -1 18.5475 -77.0375 TD 30 1 317
1878287N19283 1878 32 NA CS NOT_NAMED 1878-10-13 18:00:00 TS 18.6000 -77.1000 main 22 22 _____________O -1 18.6000 -77.1000 TD 30 2 305
1878287N19283 1878 32 NA CS NOT_NAMED 1878-10-13 21:00:00 TS 18.6575 -77.2000 main 33 33 _____________P -1 18.6575 -77.2000 TD 30 2 298
1878287N19283 1878 32 NA CS NOT_NAMED 1878-10-14 00:00:00 TS 18.7000 -77.3000 main 33 33 _____________O -1 18.7000 -77.3000 TD 30 2 286
1878287N19283 1878 32 NA CS NOT_NAMED 1878-10-14 03:00:00 TS 18.7000 -77.3575 main 33 33 _____________P -1 18.7000 -77.3575 TD 30 1 270
1878287N19283 1878 32 NA CS NOT_NAMED 1878-10-14 06:00:00 TS 18.7000 -77.4000 main 33 33 _____________O -1 18.7000 -77.4000 TD 30 1 299
1878287N19283 1878 32 NA CS NOT_NAMED 1878-10-14 09:00:00 TS 18.7500 -77.4500 main 44 33 _____________P -1 18.7500 -77.4500 TD 30 1 317
1878287N19283 1878 32 NA CS NOT_NAMED 1878-10-14 12:00:00 TS 18.8000 -77.5000 main 44 44 _____________O -1 18.8000 -77.5000 TD 30 1 297
1878287N19283 1878 32 NA CS NOT_NAMED 1878-10-14 15:00:00 TS 18.8000 -77.5500 main 44 44 _____________P -1 18.8000 -77.5500 TD 30 1 270
1878287N19283 1878 32 NA CS NOT_NAMED 1878-10-14 18:00:00 TS 18.8000 -77.6000 main 44 44 _____________O -1 18.8000 -77.6000 TD 30 1 294
1878287N19283 1878 32 NA CS NOT_NAMED 1878-10-14 21:00:00 TS 18.8425 -77.6500 main 44 44 _____________P -1 18.8425 -77.6500 TD 30 1 317
1878287N19283 1878 32 NA CS NOT_NAMED 1878-10-15 00:00:00 TS 18.9000 -77.7000 main 55 55 _____________O -1 18.9000 -77.7000 TD 30 1 324
1878287N19283 1878 32 NA CS NOT_NAMED 1878-10-15 03:00:00 TS 18.9575 -77.7425 main 67 67 _____________P -1 18.9575 -77.7425 TD 30 1 317
1878287N19283 1878 32 NA CS NOT_NAMED 1878-10-15 06:00:00 TS 19.0000 -77.8000 main 67 67 _____________O -1 19.0000 -77.8000 TD 30 2 286
1878287N19283 1878 32 NA CS NOT_NAMED 1878-10-15 09:00:00 TS 19.0000 -77.9000 main 67 67 _____________P -1 19.0000 -77.9000 TD 32 2 270
1878287N19283 1878 32 NA CS NOT_NAMED 1878-10-15 12:00:00 TS 19.0000 -78.0000 main 67 67 _____________O -1 19.0000 -78.0000 TS 35 2 288
1878287N19283 1878 32 NA CS NOT_NAMED 1878-10-15 15:00:00 TS 19.0500 -78.0575 main 67 67 _____________P -1 19.0500 -78.0575 TS 35 1 317
1878287N19283 1878 32 NA CS NOT_NAMED 1878-10-15 18:00:00 TS 19.1000 -78.1000 main 78 78 _____________O -1 19.1000 -78.1000 TS 35 1 299
1878287N19283 1878 32 NA CS NOT_NAMED 1878-10-15 21:00:00 TS 19.1000 -78.1500 main 78 78 _____________P -1 19.1000 -78.1500 TS 37 1 270
1878287N19283 1878 32 NA CS NOT_NAMED 1878-10-16 00:00:00 TS 19.1000 -78.2000 main 78 78 _____________O -1 19.1000 -78.2000 TS 40 1 294
1878287N19283 1878 32 NA CS NOT_NAMED 1878-10-16 03:00:00 TS 19.1425 -78.2500 main 78 78 _____________P -1 19.1425 -78.2500 TS 40 1 317
1878287N19283 1878 32 NA CS NOT_NAMED 1878-10-16 06:00:00 TS 19.2000 -78.3000 main 89 89 _____________O -1 19.2000 -78.3000 TS 40 1 323
1878287N19283 1878 32 NA CS NOT_NAMED 1878-10-16 09:00:00 TS 19.2425 -78.3350 main 89 84 _____________P -1 19.2425 -78.3350 TS 42 1 317
1878287N19283 1878 32 NA CS NOT_NAMED 1878-10-16 12:00:00 TS 19.3000 -78.4000 main 92 92 _____________O -1 19.3000 -78.4000 TS 45 2 308
1878287N19283 1878 32 NA CS NOT_NAMED 1878-10-16 15:00:00 TS 19.3925 -78.5425 main 94 94 _____________P -1 19.3925 -78.5425 TS 45 3 305
1878287N19283 1878 32 NA CS NOT_NAMED 1878-10-16 18:00:00 TS 19.5000 -78.7000 main 109 109 _____________O -1 19.5000 -78.7000 TS 45 3 310
1878287N19283 1878 32 NA CS NOT_NAMED 1878-10-16 21:00:00 TS 19.6000 -78.8075 main 117 117 _____________P -1 19.6000 -78.8075 TS 45 3 316
1878287N19283 1878 32 NA CS NOT_NAMED 1878-10-17 00:00:00 TS 19.7000 -78.9000 main 126 125 _____________O -1 19.7000 -78.9000 TS 45 3 319
1878287N19283 1878 32 NA CS NOT_NAMED 1878-10-17 03:00:00 TS 19.8075 -79.0000 main 136 133 _____________P -1 19.8075 -79.0000 TS 45 3 316
1878287N19283 1878 32 NA CS NOT_NAMED 1878-10-17 06:00:00 TS 19.9000 -79.1000 main 137 137 _____________O -1 19.9000 -79.1000 TS 45 2 308
1878287N19283 1878 32 NA CS NOT_NAMED 1878-10-17 09:00:00 TS 19.9500 -79.1926 main 143 133 _____________P -1 19.9500 -79.1926 TS 50 2 298
1878287N19283 1878 32 NA CS NOT_NAMED 1878-10-17 12:00:00 TS 20.0000 -79.3000 main 139 137 _____________O -1 20.0000 -79.3000 TS 55 3 301
1878287N19283 1878 32 NA CS NOT_NAMED 1878-10-17 15:00:00 TS 20.0925 -79.4500 main 137 137 _____________P -1 20.0925 -79.4500 TS 55 3 305
1878287N19283 1878 32 NA CS NOT_NAMED 1878-10-17 18:00:00 TS 20.2000 -79.6000 main 145 133 _____________O -1 20.2000 -79.6000 TS 55 3 312
1878287N19283 1878 32 NA CS NOT_NAMED 1878-10-17 21:00:00 TS 20.3000 -79.7000 main 143 143 _____________P -1 20.3000 -79.7000 TS 55 9 188
1878287N19283 1878 32 NA CS NOT_NAMED 1878-10-18 00:00:00 TS 19.3333 -79.7333 40 hurdat_atl main 178 171 O____________O hurdat_atl AL111878 17.2000 -79.6000 TS 40 0 20.4000 -79.8000 TS 55 13 188
1878287N19283 1878 32 NA CS NOT_NAMED 1878-10-18 03:00:00 TS 18.9875 -79.9012 main 181 176 P____________P AL111878 17.4676 -79.8523 TS 40 0 20.5075 -79.9500 TS 57 6 216
1878287N19283 1878 32 NA CS NOT_NAMED 1878-10-18 06:00:00 TS 18.8600 -80.1000 40 hurdat_atl main 195 191 O____________O hurdat_atl AL111878 17.7000 -80.1000 TS 40 0 20.6000 -80.1000 TS 60 4 243
1878287N19283 1878 32 NA CS NOT_NAMED 1878-10-18 09:00:00 TS 18.7983 -80.2917 main 211 211 P____________P AL111878 17.8725 -80.3300 TS 45 0 20.6500 -80.2150 TS 62 3 277
1878287N19283 1878 32 NA CS NOT_NAMED 1878-10-18 12:00:00 TS 18.9000 -80.4333 50 hurdat_atl main 224 224 O____________O hurdat_atl AL111878 18.0000 -80.5000 TS 50 0 20.7000 -80.3000 HU 65 3 317
1878287N19283 1878 32 NA CS NOT_NAMED 1878-10-18 15:00:00 TS 18.9975 -80.4934 main 238 238 P____________P AL111878 18.0999 -80.5576 TS 50 0 20.7925 -80.3650 HU 70 2 333
1878287N19283 1878 32 NA CS NOT_NAMED 1878-10-18 18:00:00 TS 19.1000 -80.5333 50 hurdat_atl main 243 243 O____________O hurdat_atl AL111878 18.2000 -80.6000 TS 50 0 20.9000 -80.4000 HU 75 3 332
1878287N19283 1878 32 NA CS NOT_NAMED 1878-10-18 21:00:00 TS 19.2334 -80.6283 main 257 257 P____________P AL111878 18.3500 -80.7424 TS 55 0 21.0000 -80.4000 HU 75 3 325
1878287N19283 1878 32 NA CS NOT_NAMED 1878-10-19 00:00:00 TS 19.3667 -80.7333 60 hurdat_atl main 267 259 O____________O hurdat_atl AL111878 18.5000 -80.9000 TS 60 0 21.1000 -80.4000 HU 75 3 322
1878287N19283 1878 32 NA CS NOT_NAMED 1878-10-19 03:00:00 TS 19.4692 -80.8217 main 259 252 P____________P AL111878 18.6000 -81.0076 TS 60 0 21.2075 -80.4500 HU 77 3 321
1878287N19283 1878 32 NA CS NOT_NAMED 1878-10-19 06:00:00 TS 19.5667 -80.9000 60 hurdat_atl main 252 242 O____________O hurdat_atl AL111878 18.7000 -81.1000 TS 60 0 21.3000 -80.5000 HU 80 2 328
1878287N19283 1878 32 NA CS NOT_NAMED 1878-10-19 09:00:00 TS 19.6733 -80.9567 main 246 236 P____________P AL111878 18.8350 -81.1925 TS 60 0 21.3500 -80.4851 HU 80 3 332
1878287N19283 1878 32 NA CS NOT_NAMED 1878-10-19 12:00:00 TS 19.8000 -81.0333 60 hurdat_atl main 236 223 O____________O hurdat_atl AL111878 19.0000 -81.3000 TS 60 0 21.4000 -80.5000 HU 80 4 325
1878287N19283 1878 32 NA CS NOT_NAMED 1878-10-19 15:00:00 TS 19.9642 -81.1708 main 223 209 P____________P AL111878 19.2000 -81.4425 TS 60 0 21.4925 -80.6275 HU 80 4 320
1878287N19283 1878 32 NA CS NOT_NAMED 1878-10-19 18:00:00 TS 20.1333 -81.3333 60 hurdat_atl main 209 178 O____________O hurdat_atl AL111878 19.4000 -81.6000 TS 60 0 21.6000 -80.8000 HU 80 4 315
1878287N19283 1878 32 NA CS NOT_NAMED 1878-10-19 21:00:00 TS 20.2617 -81.4909 main 178 163 P____________P AL111878 19.5425 -81.7576 TS 65 1 21.7000 -80.9575 HU 80 4 313
1878287N19283 1878 32 NA CS NOT_NAMED 1878-10-20 00:00:00 TS 20.4000 -81.6333 70 hurdat_atl main 163 139 O____________O hurdat_atl AL111878 19.7000 -81.9000 HU 70 1 21.8000 -81.1000 HU 80 4 325
1878287N19283 1878 32 NA CS NOT_NAMED 1878-10-20 03:00:00 TS 20.5900 -81.7359 main 139 115 P____________P AL111878 19.9350 -82.0001 HU 70 1 21.9000 -81.2075 HU 80 4 335
1878287N19283 1878 32 NA CS NOT_NAMED 1878-10-20 06:00:00 TS 20.8000 -81.8333 70 hurdat_atl main 115 84 O____________O hurdat_atl AL111878 20.2000 -82.1000 HU 70 1 22.0000 -81.3000 HU 80 5 331
1878287N19283 1878 32 NA CS NOT_NAMED 1878-10-20 09:00:00 TS 20.9925 -81.9766 main 84 60 P____________P AL111878 20.4500 -82.2649 HU 75 1 22.0775 -81.4001 HU 80 5 328
1878287N19283 1878 32 NA CS NOT_NAMED 1878-10-20 12:00:00 TS 21.2000 -82.1000 80 hurdat_atl main 60 47 O____________O hurdat_atl AL111878 20.7000 -82.4000 HU 80 1 22.2000 -81.5000 HU 80 5 340
1878287N19283 1878 32 NA CS NOT_NAMED 1878-10-20 15:00:00 TS 21.4325 -82.1484 main 47 31 P____________P AL111878 20.9350 -82.4226 HU 80 1 22.4275 -81.6000 HU 80 5 353
1878287N19283 1878 32 NA CS NOT_NAMED 1878-10-20 18:00:00 TS 21.7000 -82.1667 80 hurdat_atl main 32 32 O____________O hurdat_atl AL111878 21.2000 -82.4000 HU 80 1 22.7000 -81.7000 HU 80 6 354
1878287N19283 1878 32 NA CS NOT_NAMED 1878-10-20 21:00:00 TS 22.0117 -82.2199 main 39 11 P____________P AL111878 21.5425 -82.4149 HU 85 2 22.9500 -81.8299 HU 85 6 355
1878287N19283 1878 32 NA CS NOT_NAMED 1878-10-21 00:00:00 TS 22.3333 -82.2333 90 hurdat_atl main 11 0 O____________O hurdat_atl AL111878 21.9000 -82.4000 HU 90 2 23.2000 -81.9000 HU 90 6 6
1878287N19283 1878 32 NA CS NOT_NAMED 1878-10-21 03:00:00 TS 22.6192 -82.1608 main 11 0 P____________P AL111878 22.2000 -82.3299 HU 90 2 23.4575 -81.8227 HU 90 6 18
1878287N19283 1878 32 NA NA NOT_NAMED 1878-10-21 06:00:00 TS 22.9000 -82.0333 90 hurdat_atl main 0 0 O____________O hurdat_atl AL111878 22.5000 -82.2000 HU 90 2 23.7000 -81.7000 HU 90 6 23
1878287N19283 1878 32 NA NA NOT_NAMED 1878-10-21 09:00:00 TS 23.1524 -81.9228 main 11 11 P____________P AL111878 22.8049 -82.0445 HU 85 2 23.8474 -81.6794 HU 85 7 25
1878287N19283 1878 32 NA NA NOT_NAMED 1878-10-21 12:00:00 TS 23.5000 -81.7333 80 hurdat_atl main 44 44 O____________O hurdat_atl AL111878 23.2000 -81.8000 HU 80 1 24.1000 -81.6000 HU 80 10 27
1878287N19283 1878 32 NA NA NOT_NAMED 1878-10-21 15:00:00 TS 24.0374 -81.4189 main 101 45 P____________P AL111878 23.7398 -81.4595 HU 75 1 24.6326 -81.3378 HU 75 14 29
1878287N19283 1878 32 NA NA NOT_NAMED 1878-10-21 18:00:00 TS 24.7000 -81.0000 70 hurdat_atl main 45 0 O____________O hurdat_atl AL111878 24.4000 -81.0000 HU 70 1 25.3000 -81.0000 HU 70 16 32
1878287N19283 1878 32 NA NA NOT_NAMED 1878-10-21 21:00:00 TS 25.4045 -80.4856 main 0 0 P____________P AL111878 25.1356 -80.3786 HU 70 1 25.9424 -80.6997 HU 70 17 32
1878287N19283 1878 32 NA NA NOT_NAMED 1878-10-22 00:00:00 TS 26.1333 -80.0000 70 hurdat_atl main 9 9 O____________O hurdat_atl AL111878 25.9000 -79.8000 HU 70 1 26.6000 -80.4000 HU 70 16 26
1878287N19283 1878 32 NA NA NOT_NAMED 1878-10-22 03:00:00 TS 26.8213 -79.7023 main 29 29 P____________P AL111878 26.6070 -79.4962 HU 70 1 27.2498 -80.1144 HU 70 15 19
1878287N19283 1878 32 NA NA NOT_NAMED 1878-10-22 06:00:00 TS 27.5000 -79.4667 70 hurdat_atl main 76 76 O____________O hurdat_atl AL111878 27.3000 -79.3000 HU 70 1 27.9000 -79.8000 HU 70 14 19
1878287N19283 1878 32 NA NA NOT_NAMED 1878-10-22 09:00:00 TS 28.1533 -79.1809 main 131 131 P____________P AL111878 27.9548 -79.0713 HU 75 1 28.5501 -79.4001 HU 75 15 21
1878287N19283 1878 32 NA NA NOT_NAMED 1878-10-22 12:00:00 TS 28.8667 -78.8667 80 hurdat_atl main 162 162 O____________O hurdat_atl AL111878 28.7000 -78.8000 HU 80 1 29.2000 -79.0000 HU 80 16 22
1878287N19283 1878 32 NA NA NOT_NAMED 1878-10-22 15:00:00 TS 29.6627 -78.4949 main 235 235 P____________P AL111878 29.6328 -78.4079 HU 80 1 29.7225 -78.6687 HU 80 19 20
1878287N19283 1878 32 NA NA NOT_NAMED 1878-10-22 18:00:00 TS 30.6333 -78.1333 80 hurdat_atl main 286 194 O____________O hurdat_atl AL111878 30.7000 -78.0000 HU 80 1 30.5000 -78.4000 HU 80 22 14
1878287N19283 1878 32 NA NA NOT_NAMED 1878-10-22 21:00:00 TS 31.8239 -77.8496 main 200 96 P____________P AL111878 31.7922 -77.6714 HU 85 2 31.8875 -78.2061 HU 85 26 10
1878287N19283 1878 32 NA NA NOT_NAMED 1878-10-23 00:00:00 TS 33.1667 -77.6000 90 963 hurdat_atl main 86 9 O____________O hurdat_atl AL111878 33.0000 -77.4000 HU 90 963 2 33.5000 -78.0000 HU 90 963 28 9
1878287N19283 1878 32 NA NA NOT_NAMED 1878-10-23 03:00:00 TS 34.5361 -77.3323 main 9 0 P____________P AL111878 34.3428 -77.1622 HU 90 963 2 34.9225 -77.6724 HU 85 966 28 9
1878287N19283 1878 32 NA NA NOT_NAMED 1878-10-23 04:00:00 TS 34.9951 -77.2498 90 963 hurdat_atl main 0 0 O____________P hurdat_atl AL111878 34.8000 -77.1000 L HU 90 963 2 35.3854 -77.5494 HU 83 966 28 8
1878287N19283 1878 32 NA NA NOT_NAMED 1878-10-23 06:00:00 TS 35.9000 -77.1000 90 hurdat_atl main 0 0 I____________I hurdat_atl AL111878 35.7000 -77.0000 HU 90 966 2 36.3000 -77.3000 HU 80 969 30 3
1878287N19283 1878 32 NA NA NOT_NAMED 1878-10-23 09:00:00 TS 37.4448 -77.1026 main 0 0 P____________P AL111878 37.3313 -77.1617 HU 85 970 2 37.6719 -76.9844 HU 70 972 31 2
1878287N19283 1878 32 NA NA NOT_NAMED 1878-10-23 12:00:00 TS 39.0000 -77.0000 80 975 hurdat_atl main 0 0 O____________O hurdat_atl AL111878 39.0000 -77.2000 HU 80 975 1 39.0000 -76.6000 TS 60 975 30 11
1878287N19283 1878 32 NA NA NOT_NAMED 1878-10-23 15:00:00 TS 40.3930 -76.3334 main 0 0 P____________P AL111878 40.4087 -76.4585 HU 75 1 40.3617 -76.0832 TS 60 28 26
1878287N19283 1878 32 NA NA NOT_NAMED 1878-10-23 18:00:00 TS 41.5000 -75.4000 70 hurdat_atl main 0 0 O____________O hurdat_atl AL111878 41.5000 -75.4000 HU 70 1 41.5000 -75.4000 TS 60 23 36
1878287N19283 1878 32 NA NA NOT_NAMED 1878-10-23 21:00:00 TS 42.2711 -74.5430 main 0 0 P____________P AL111878 42.2708 -74.5273 HU 65 1 42.2718 -74.5745 TS 60 18 48
1878287N19283 1878 32 NA NA NOT_NAMED 1878-10-24 00:00:00 ET 42.7000 -73.6000 60 hurdat_atl main 0 0 O____________O hurdat_atl AL111878 42.7000 -73.6000 EX 60 -4 42.7000 -73.6000 EX 60 16 66
1878287N19283 1878 32 NA NA NOT_NAMED 1878-10-24 03:00:00 ET 42.9187 -72.5589 main 0 0 P____________P AL111878 42.9187 -72.5589 EX 55 -4 42.9187 -72.5589 EX 55 16 83
1878287N19283 1878 32 NA NA NOT_NAMED 1878-10-24 06:00:00 ET 42.9000 -71.4000 50 hurdat_atl main 0 0 O____________O hurdat_atl AL111878 42.9000 -71.4000 EX 50 -4 42.9000 -71.4000 EX 50 18 94
1878287N19283 1878 32 NA NA NOT_NAMED 1878-10-24 09:00:00 ET 42.7904 -70.1002 main 46 46 P____________P AL111878 42.7904 -70.1002 EX 50 -4 42.7904 -70.1002 EX 50 19 102
1878287N19283 1878 32 NA NA NOT_NAMED 1878-10-24 12:00:00 ET 42.5000 -68.8000 50 hurdat_atl main 125 125 O____________O hurdat_atl AL111878 42.5000 -68.8000 EX 50 -4 42.5000 -68.8000 EX 50 20 113
1878287N19283 1878 32 NA NA NOT_NAMED 1878-10-24 15:00:00 ET 42.0142 -67.6226 main 199 199 P____________P AL111878 42.0142 -67.6226 EX 50 -4 42.0142 -67.6226 EX 50 19 121
1878287N19283 1878 32 NA NA NOT_NAMED 1878-10-24 18:00:00 ET 41.5000 -66.6000 50 hurdat_atl main 234 231 O____________O hurdat_atl AL111878 41.5000 -66.6000 EX 50 -4 41.5000 -66.6000 EX 50 16 121
1878287N19283 1878 32 NA NA NOT_NAMED 1878-10-24 21:00:00 ET 41.1754 -65.7809 main 255 255 P____________P AL111878 41.1754 -65.7809 EX 50 -4 41.1754 -65.7809 EX 50 13 116
1878287N19283 1878 32 NA NA NOT_NAMED 1878-10-25 00:00:00 ET 40.9000 -65.0000 50 hurdat_atl main 290 290 O____________O hurdat_atl AL111878 40.9000 -65.0000 EX 50 -4 40.9000 -65.0000 EX 50 14 115
1878287N19283 1878 32 NA NA NOT_NAMED 1878-10-25 03:00:00 ET 40.5574 -64.0652 main 337 337 P____________P AL111878 40.5574 -64.0652 EX 50 -4 40.5574 -64.0652 EX 50 16 116
1878287N19283 1878 32 NA NA NOT_NAMED 1878-10-25 06:00:00 ET 40.2000 -63.1000 50 hurdat_atl main 409 409 O____________O hurdat_atl AL111878 40.2000 -63.1000 EX 50 -4 40.2000 -63.1000 EX 50 16 117
1878287N19283 1878 32 NA NA NOT_NAMED 1878-10-25 09:00:00 ET 39.8346 -62.1702 main 484 484 P____________P AL111878 39.8346 -62.1702 EX 50 -4 39.8346 -62.1702 EX 50 15 117
1878287N19283 1878 32 NA NA NOT_NAMED 1878-10-25 12:00:00 ET 39.5000 -61.3000 50 hurdat_atl main 555 555 O____________O hurdat_atl AL111878 39.5000 -61.3000 EX 50 -4 39.5000 -61.3000 EX 50 14 115
1878287N19283 1878 32 NA NA NOT_NAMED 1878-10-25 15:00:00 ET 39.2307 -60.5221 main 622 622 P____________P AL111878 39.2307 -60.5221 EX 50 -4 39.2307 -60.5221 EX 50 13 113
1878287N19283 1878 32 NA NA NOT_NAMED 1878-10-25 18:00:00 ET 39.0000 -59.8000 50 hurdat_atl main 676 O____________O hurdat_atl AL111878 39.0000 -59.8000 EX 50 -4 39.0000 -59.8000 EX 50 12 112

IBTrACS Databaseについて

本データベースは、米国NOAAが公開する1842年以降の世界の熱帯低気圧のベストトラックデータアーカイブInternational Best Track Archive for Climate Stewardship (IBTrACS)を、ウェブで閲覧しやすい形式に変換したものです。

最終更新日:2021-12-06